createdAt,value
2018-02-02T13:44:12.048Z,985.8485
2018-02-02T13:45:11.515Z,985.8111
2018-02-02T13:46:11.574Z,985.8348
2018-02-02T13:47:11.654Z,985.8979
2018-02-02T13:48:11.335Z,985.8533
2018-02-02T13:49:12.136Z,985.8904
2018-02-02T13:50:11.294Z,985.8624
2018-02-02T13:51:11.300Z,985.9146
2018-02-02T13:52:11.297Z,985.8897
2018-02-02T13:53:11.297Z,985.9549
2018-02-02T13:54:11.331Z,985.9348
2018-02-02T13:55:11.299Z,985.896
2018-02-02T13:56:11.404Z,985.8987
2018-02-02T13:57:11.303Z,985.968
2018-02-02T13:58:11.307Z,985.9888
2018-02-02T13:59:11.308Z,985.9365
2018-02-02T14:00:11.333Z,985.9596
2018-02-02T14:01:11.310Z,985.9663
2018-02-02T14:02:11.311Z,985.9324
2018-02-02T14:03:11.305Z,985.9766
2018-02-02T14:04:11.305Z,985.9371
2018-02-02T14:05:11.538Z,985.9562
2018-02-02T14:06:11.315Z,985.9411
2018-02-02T14:07:11.315Z,985.9445
2018-02-02T14:08:11.308Z,985.991
2018-02-02T14:09:11.311Z,985.9935
2018-02-02T14:10:11.318Z,985.9676
2018-02-02T14:11:11.343Z,985.9434
2018-02-02T14:12:11.318Z,985.9571
2018-02-02T14:13:11.593Z,985.9688
2018-02-02T14:14:12.008Z,985.9528
2018-02-02T14:15:11.767Z,985.9854
2018-02-02T14:16:12.274Z,985.997
2018-02-02T14:17:11.339Z,986.0676
2018-02-02T14:18:11.319Z,986.0217
2018-02-02T14:19:11.321Z,986.1125
2018-02-02T14:20:11.447Z,986.0367
2018-02-02T14:21:11.821Z,986.0968
2018-02-02T14:22:12.949Z,986.1268
2018-02-02T14:23:11.329Z,986.1133
2018-02-02T14:24:11.327Z,986.1328
2018-02-02T14:25:11.330Z,986.1275
2018-02-02T14:26:11.338Z,986.1057
2018-02-02T14:27:11.362Z,986.1387
2018-02-02T14:28:11.334Z,986.1275
2018-02-02T14:29:11.335Z,986.1333
2018-02-02T14:30:11.335Z,986.1445
2018-02-02T14:31:11.332Z,986.1562
2018-02-02T14:32:11.370Z,986.1445
2018-02-02T14:33:11.333Z,986.1093
2018-02-02T14:34:11.333Z,986.1038
2018-02-02T14:35:11.335Z,986.0976
2018-02-02T14:36:11.780Z,986.1234
2018-02-02T14:37:11.644Z,986.0963
2018-02-02T14:38:11.345Z,986.0986
2018-02-02T14:39:11.335Z,986.0693
2018-02-02T14:40:11.336Z,986.1895
2018-02-02T14:41:11.347Z,986.0893
2018-02-02T14:42:11.366Z,986.1401
2018-02-02T14:43:11.345Z,986.1212
2018-02-02T14:44:11.345Z,986.1376
2018-02-02T14:45:11.343Z,986.1589
2018-02-02T14:46:11.398Z,986.2207
2018-02-02T14:47:11.384Z,986.2046
2018-02-02T14:48:11.347Z,986.1777
2018-02-02T14:49:11.347Z,986.226
2018-02-02T14:50:11.349Z,986.2883
2018-02-02T14:51:11.379Z,986.2883
2018-02-02T14:52:11.351Z,986.2341
2018-02-02T14:53:11.353Z,986.2665
2018-02-02T14:54:11.348Z,986.22
2018-02-02T14:55:11.477Z,986.2312
2018-02-02T14:56:11.710Z,986.2829
2018-02-02T14:57:11.355Z,986.2552
2018-02-02T14:58:11.354Z,986.2254
2018-02-02T14:59:11.354Z,986.214
2018-02-02T15:00:11.354Z,986.2254
2018-02-02T15:01:11.365Z,986.2224
2018-02-02T15:02:11.384Z,986.2365
2018-02-02T15:03:11.361Z,986.2529
2018-02-02T15:04:11.357Z,986.2993
2018-02-02T15:05:11.365Z,986.2529
2018-02-02T15:06:11.362Z,986.316
2018-02-02T15:07:11.772Z,986.2912
2018-02-02T15:08:11.376Z,986.3672
2018-02-02T15:09:11.412Z,986.249
2018-02-02T15:10:11.367Z,986.2949
2018-02-02T15:11:11.418Z,986.3693
2018-02-02T15:12:11.423Z,986.3602
2018-02-02T15:13:11.362Z,986.3196
2018-02-02T15:14:11.415Z,986.3682
2018-02-02T15:15:11.379Z,986.3602
2018-02-02T15:16:11.373Z,986.3552
2018-02-02T15:17:11.561Z,986.3529
2018-02-02T15:18:11.378Z,986.3602
2018-02-02T15:19:11.368Z,986.4077
2018-02-02T15:20:11.562Z,986.3593
2018-02-02T15:21:11.370Z,986.4171
2018-02-02T15:22:11.932Z,986.4423
2018-02-02T15:23:11.512Z,986.4618
2018-02-02T15:24:11.376Z,986.4459
2018-02-02T15:25:11.373Z,986.4464
2018-02-02T15:26:11.380Z,986.4977
2018-02-02T15:27:11.381Z,986.4543
2018-02-02T15:28:11.508Z,986.5307
2018-02-02T15:29:11.388Z,986.476
2018-02-02T15:30:11.389Z,986.5519
2018-02-02T15:31:11.383Z,986.4901
2018-02-02T15:32:11.383Z,986.5254
2018-02-02T15:33:11.417Z,986.5637
2018-02-02T15:34:11.406Z,986.5637
2018-02-02T15:35:11.449Z,986.5984
2018-02-02T15:36:11.437Z,986.5519
2018-02-02T15:37:11.804Z,986.5637
2018-02-02T15:38:11.388Z,986.5965
2018-02-02T15:39:11.432Z,986.5582
2018-02-02T15:40:11.387Z,986.6019
2018-02-02T15:41:11.393Z,986.6562
2018-02-02T15:42:11.394Z,986.6324
2018-02-02T15:43:11.431Z,986.6213
2018-02-02T15:44:11.389Z,986.632
2018-02-02T15:45:11.401Z,986.6407
2018-02-02T15:46:11.400Z,986.6191
2018-02-02T15:47:11.400Z,986.5966
2018-02-02T15:48:11.468Z,986.6165
2018-02-02T15:49:11.430Z,986.6866
2018-02-02T15:50:11.398Z,986.6513
2018-02-02T15:51:11.403Z,986.6218
2018-02-02T15:52:11.404Z,986.6707
2018-02-02T15:53:11.538Z,986.6548
2018-02-02T15:54:11.426Z,986.6761
2018-02-02T15:55:11.410Z,986.6677
2018-02-02T15:56:11.518Z,986.6707
2018-02-02T15:57:11.726Z,986.7054
2018-02-02T15:58:11.410Z,986.7927
2018-02-02T15:59:11.435Z,986.7303
2018-02-02T16:00:11.413Z,986.6979
2018-02-02T16:01:11.429Z,986.6462
2018-02-02T16:02:11.482Z,986.6301
2018-02-02T16:03:11.639Z,986.5948
2018-02-02T16:04:11.410Z,986.6597
2018-02-02T16:05:11.409Z,986.6301
2018-02-02T16:06:11.411Z,986.6544
2018-02-02T16:07:11.414Z,986.6926
2018-02-02T16:08:11.409Z,986.6597
2018-02-02T16:09:11.457Z,986.7308
2018-02-02T16:10:11.415Z,986.7415
2018-02-02T16:11:11.421Z,986.7009
2018-02-02T16:12:11.419Z,986.7491
2018-02-02T16:13:11.419Z,986.7279
2018-02-02T16:14:11.546Z,986.7927
2018-02-02T16:15:11.523Z,986.7985
2018-02-02T16:16:11.453Z,986.7879
2018-02-02T16:17:11.420Z,986.826
2018-02-02T16:18:11.427Z,986.8763
2018-02-02T16:19:11.418Z,986.842
2018-02-02T16:20:11.458Z,986.9102
2018-02-02T16:21:11.422Z,986.8527
2018-02-02T16:22:11.425Z,986.9063
2018-02-02T16:23:11.431Z,986.8608
2018-02-02T16:24:11.729Z,986.9102
2018-02-02T16:25:11.804Z,986.9511
2018-02-02T16:26:11.668Z,986.9244
2018-02-02T16:27:11.427Z,986.8674
2018-02-02T16:28:11.510Z,986.908
2018-02-02T16:29:11.437Z,986.8702
2018-02-02T16:30:11.435Z,986.876
2018-02-02T16:31:11.463Z,986.8922
2018-02-02T16:32:11.651Z,986.8922
2018-02-02T16:33:11.434Z,986.9109
2018-02-02T16:34:11.429Z,986.9302
2018-02-02T16:35:11.439Z,986.9087
2018-02-02T16:36:11.468Z,986.9357
2018-02-02T16:37:11.460Z,986.9293
2018-02-02T16:38:11.435Z,986.9291
2018-02-02T16:39:11.463Z,987.0299
2018-02-02T16:40:11.442Z,986.9735
2018-02-02T16:41:11.437Z,986.9492
2018-02-02T16:42:11.502Z,986.9709
2018-02-02T16:43:11.445Z,986.9629
2018-02-02T16:44:11.446Z,987.0117
2018-02-02T16:45:11.446Z,987.0005
2018-02-02T16:46:11.440Z,987.0494
2018-02-02T16:47:11.481Z,987.0412
2018-02-02T16:48:11.584Z,987.0789
2018-02-02T16:49:11.443Z,987.1549
2018-02-02T16:50:11.459Z,987.1443
2018-02-02T16:51:11.445Z,987.1248
2018-02-02T16:52:11.448Z,987.1496
2018-02-02T16:53:11.702Z,987.1577
2018-02-02T16:54:11.452Z,987.1949
2018-02-02T16:55:11.493Z,987.1325
2018-02-02T16:56:11.612Z,987.1384
2018-02-02T16:57:11.451Z,987.179
2018-02-02T16:58:11.452Z,987.1543
2018-02-02T16:59:11.676Z,987.1577
2018-02-02T17:00:11.536Z,987.1678
2018-02-02T17:01:11.452Z,987.176
2018-02-02T17:02:11.459Z,987.1543
2018-02-02T17:03:11.454Z,987.2244
2018-02-02T17:04:11.568Z,987.1594
2018-02-02T17:05:11.539Z,987.2031
2018-02-02T17:06:11.457Z,987.2278
2018-02-02T17:07:11.463Z,987.1577
2018-02-02T17:08:11.463Z,987.1605
2018-02-02T17:09:11.539Z,987.2012
2018-02-02T17:10:11.854Z,987.1747
2018-02-02T17:11:11.475Z,987.1747
2018-02-02T17:12:11.467Z,987.1559
2018-02-02T17:13:11.747Z,987.199
2018-02-02T17:14:11.474Z,987.1696
2018-02-02T17:15:11.472Z,987.1758
2018-02-02T17:16:11.503Z,987.1812
2018-02-02T17:17:11.537Z,987.157
2018-02-02T17:18:11.470Z,987.1386
2018-02-02T17:19:11.472Z,987.1549
2018-02-02T17:20:11.570Z,987.1082
2018-02-02T17:21:11.502Z,987.157
2018-02-02T17:22:11.479Z,987.1279
2018-02-02T17:23:11.560Z,987.0757
2018-02-02T17:24:11.496Z,987.0835
2018-02-02T17:25:11.471Z,987.1488
2018-02-02T17:26:11.480Z,987.0835
2018-02-02T17:27:11.501Z,987.0539
2018-02-02T17:28:11.484Z,987.0433
2018-02-02T17:29:11.478Z,987.0547
2018-02-02T17:30:11.488Z,987.0276
2018-02-02T17:31:11.487Z,987.0683
2018-02-02T17:32:11.507Z,987.0027
2018-02-02T17:33:11.538Z,987.0757
2018-02-02T17:34:11.550Z,987.0683
2018-02-02T17:35:11.482Z,987.0621
2018-02-02T17:36:11.482Z,987.127
2018-02-02T17:37:11.506Z,987.0762
2018-02-02T17:38:11.488Z,987.1007
2018-02-02T17:39:11.478Z,987.0818
2018-02-02T17:40:11.491Z,987.136
2018-02-02T17:41:11.485Z,987.1468
2018-02-02T17:42:11.893Z,987.136
2018-02-02T17:43:11.486Z,987.1599
2018-02-02T17:44:11.486Z,987.1812
2018-02-02T17:45:11.510Z,987.1821
2018-02-02T17:46:11.811Z,987.1687
2018-02-02T17:47:11.494Z,987.1386
2018-02-02T17:48:11.518Z,987.2383
2018-02-02T17:49:11.816Z,987.2001
2018-02-02T17:50:11.489Z,987.2388
2018-02-02T17:51:11.499Z,987.2059
2018-02-02T17:52:11.495Z,987.2083
2018-02-02T17:53:11.542Z,987.2361
2018-02-02T17:54:11.495Z,987.1976
2018-02-02T17:55:11.501Z,987.233
2018-02-02T17:56:11.769Z,987.2361
2018-02-02T17:57:11.506Z,987.2308
2018-02-02T17:58:11.508Z,987.2813
2018-02-02T17:59:11.532Z,987.1888
2018-02-02T18:00:11.507Z,987.2173
2018-02-02T18:01:11.513Z,987.3055
2018-02-02T18:02:12.020Z,987.2469
2018-02-02T18:03:11.517Z,987.2707
2018-02-02T18:04:11.545Z,987.276
2018-02-02T18:05:11.516Z,987.2703
2018-02-02T18:06:11.581Z,987.2756
2018-02-02T18:07:11.507Z,987.246
2018-02-02T18:08:11.568Z,987.2513
2018-02-02T18:09:11.736Z,987.276
2018-02-02T18:10:11.512Z,987.2029
2018-02-02T18:11:11.511Z,987.2444
2018-02-02T18:12:11.549Z,987.2368
2018-02-02T18:13:11.560Z,987.2751
2018-02-02T18:14:11.731Z,987.267
2018-02-02T18:15:11.509Z,987.2999
2018-02-02T18:16:11.562Z,987.2321
2018-02-02T18:17:11.521Z,987.2781
2018-02-02T18:18:11.513Z,987.3139
2018-02-02T18:19:11.689Z,987.2762
2018-02-02T18:20:11.794Z,987.2628
2018-02-02T18:50:59.176Z,987.3884
2018-02-02T18:51:58.860Z,987.3665
2018-02-02T18:52:58.833Z,987.4333
2018-02-02T18:53:58.880Z,987.4445
2018-02-02T18:54:59.140Z,987.4381
2018-02-02T18:56:40.898Z,987.478
2018-02-02T18:57:41.089Z,987.4593
2018-02-02T18:58:41.110Z,987.4987
2018-02-02T19:00:12.187Z,987.509
2018-02-02T19:01:12.102Z,987.5519
2018-02-02T19:02:12.068Z,987.5304
2018-02-02T19:03:12.044Z,987.5189
2018-02-02T19:05:19.138Z,987.5032
2018-02-02T19:06:19.268Z,987.5206
2018-02-02T19:07:19.323Z,987.4916
2018-02-02T19:08:19.054Z,987.5681
2018-02-02T19:09:19.297Z,987.5252
2018-02-02T19:10:19.274Z,987.5452
2018-02-02T19:12:26.950Z,987.5621
2018-02-02T19:13:26.936Z,987.546
2018-02-02T19:14:26.647Z,987.6251
2018-02-02T19:15:26.857Z,987.6264
2018-02-02T19:16:26.859Z,987.6142
2018-02-02T19:17:26.809Z,987.6129
2018-02-02T19:18:26.683Z,987.6379
2018-02-02T19:19:26.660Z,987.6474
2018-02-02T19:20:26.622Z,987.616
2018-02-02T19:21:26.640Z,987.647
2018-02-02T19:22:26.624Z,987.6215
2018-02-02T19:25:37.749Z,987.6724
2018-02-02T19:26:37.683Z,987.7026
2018-02-02T19:27:37.681Z,987.6824
2018-02-02T19:28:37.688Z,987.7071
2018-02-02T19:29:38.085Z,987.7221
2018-02-02T19:30:37.781Z,987.6342
2018-02-02T19:31:37.683Z,987.6161
2018-02-02T19:32:37.688Z,987.6199
2018-02-02T19:33:37.685Z,987.6994
2018-02-02T19:34:37.686Z,987.6837
2018-02-02T19:35:37.714Z,987.701
2018-02-02T19:36:37.703Z,987.6907
2018-02-02T19:37:37.694Z,987.7266
2018-02-02T19:38:37.687Z,987.7301
2018-02-02T19:39:37.686Z,987.7085
2018-02-02T19:40:37.865Z,987.7526
2018-02-02T19:41:37.692Z,987.7585
2018-02-02T19:42:37.701Z,987.7611
2018-02-02T19:43:37.691Z,987.7428
2018-02-02T19:44:37.691Z,987.7134
2018-02-02T19:45:37.690Z,987.7216
2018-02-02T19:46:38.072Z,987.7271
2018-02-02T19:47:37.712Z,987.7601
2018-02-02T19:49:28.646Z,987.7701
2018-02-02T19:50:28.603Z,987.7723
2018-02-02T19:51:28.600Z,987.784
2018-02-02T19:52:28.599Z,987.7871
2018-02-02T19:53:28.601Z,987.8171
2018-02-02T19:54:28.595Z,987.8558
2018-02-02T19:55:28.626Z,987.8619
2018-02-02T19:56:28.592Z,987.8596
2018-02-02T19:57:28.620Z,987.8649
2018-02-02T19:58:28.612Z,987.819
2018-02-02T19:59:28.609Z,987.7979
2018-02-02T20:00:28.625Z,987.8038
2018-02-02T20:01:28.603Z,987.8393
2018-02-02T20:02:28.605Z,987.8181
2018-02-02T20:03:28.597Z,987.837
2018-02-02T20:04:28.604Z,987.8505
2018-02-02T20:05:28.772Z,987.8693
2018-02-02T20:06:28.604Z,987.894
2018-02-02T20:07:28.611Z,987.8497
2018-02-02T20:08:28.605Z,987.8287
2018-02-02T20:10:33.324Z,987.8834
2018-02-02T20:11:33.258Z,987.9192
2018-02-02T20:12:33.260Z,987.9434
2018-02-02T20:13:33.265Z,987.9136
2018-02-02T20:14:33.261Z,987.9218
2018-02-02T20:15:33.261Z,987.8676
2018-02-02T20:16:33.399Z,987.9383
2018-02-02T20:17:33.250Z,987.9006
2018-02-02T20:18:56.838Z,987.9116
2018-02-02T20:19:56.782Z,987.9199
2018-02-02T20:20:56.774Z,987.9282
2018-02-02T20:21:56.820Z,987.969
2018-02-02T20:22:57.110Z,987.9476
2018-02-02T20:23:56.776Z,987.9683
2018-02-02T20:24:56.821Z,987.9905
2018-02-02T20:25:56.772Z,987.9719
2018-02-02T20:26:56.775Z,988.0049
2018-02-02T20:28:51.016Z,988.0566
2018-02-02T20:29:51.091Z,988.0213
2018-02-02T20:30:51.098Z,988.0213
2018-02-02T20:31:52.261Z,988.0213
2018-02-02T20:32:51.058Z,988.0271
2018-02-02T20:33:50.914Z,988.0574
2018-02-02T20:34:50.943Z,988.0872
2018-02-02T20:35:51.241Z,988.0736
2018-02-02T20:36:51.335Z,988.0973
2018-02-02T20:37:51.128Z,988.0789
2018-02-02T20:38:50.930Z,988.0899
2018-02-02T20:39:50.998Z,988.1143
2018-02-02T20:40:50.946Z,988.0981
2018-02-02T20:42:19.158Z,988.1225
2018-02-02T20:43:21.581Z,988.0984
2018-02-02T20:44:18.551Z,988.0872
2018-02-02T20:45:18.398Z,988.1035
2018-02-02T20:46:18.602Z,988.1549
2018-02-02T20:47:18.530Z,988.1252
2018-02-02T20:48:18.735Z,988.1496
2018-02-02T20:49:18.352Z,988.123
2018-02-02T20:50:18.728Z,988.1477
2018-02-02T20:51:18.562Z,988.1559
2018-02-02T20:52:21.540Z,988.0776
2018-02-02T20:53:18.517Z,988.1615
2018-02-02T20:54:18.662Z,988.132
2018-02-02T20:55:21.504Z,988.1019
2018-02-02T20:56:18.560Z,988.0831
2018-02-02T20:57:18.756Z,988.0559
2018-02-02T20:58:18.431Z,988.0966
2018-02-02T20:59:18.487Z,988.1348
2018-02-02T21:00:18.764Z,988.0942
2018-02-02T21:01:18.633Z,988.0399
2018-02-02T21:02:18.721Z,988.0782
2018-02-02T21:03:18.608Z,988.0593
2018-02-02T21:04:18.544Z,988.0486
2018-02-02T21:05:18.429Z,988.114
2018-02-02T21:06:18.742Z,988.1219
2018-02-02T21:07:18.618Z,988.106
2018-02-02T21:08:18.748Z,988.0977
2018-02-02T21:09:18.647Z,988.136
2018-02-02T21:10:18.363Z,988.1171
2018-02-02T21:11:18.676Z,988.0983
2018-02-02T21:12:18.466Z,988.0793
2018-02-02T21:13:18.627Z,988.0522
2018-02-02T21:14:18.831Z,988.0717
2018-02-02T21:15:18.703Z,988.0634
2018-02-02T21:16:18.491Z,988.0446
2018-02-02T21:17:18.490Z,988.0881
2018-02-02T21:18:18.401Z,988.0418
2018-02-02T21:19:18.376Z,988.0688
2018-02-02T21:20:18.539Z,988.0554
2018-02-02T21:21:18.376Z,988.1071
2018-02-02T21:22:18.377Z,988.0989
2018-02-02T21:23:18.539Z,988.0665
2018-02-02T21:24:18.379Z,988.0748
2018-02-02T21:25:18.383Z,988.1319
2018-02-02T21:26:18.385Z,988.1672
2018-02-02T21:27:18.382Z,988.1725
2018-02-02T21:28:18.397Z,988.1348
2018-02-02T21:29:18.410Z,988.1837
2018-02-02T21:30:18.386Z,988.189
2018-02-02T21:31:18.388Z,988.1754
2018-02-02T21:32:18.392Z,988.1973
2018-02-02T21:33:18.388Z,988.1948
2018-02-02T21:34:18.522Z,988.2219
2018-02-02T21:35:18.394Z,988.2031
2018-02-02T21:36:18.399Z,988.2112
2018-02-02T21:37:18.397Z,988.2437
2018-02-02T21:38:18.392Z,988.1948
2018-02-02T21:39:18.410Z,988.1978
2018-02-02T21:40:18.423Z,988.1841
2018-02-02T21:41:18.390Z,988.2138
2018-02-02T21:42:18.394Z,988.1435
2018-02-02T21:43:18.394Z,988.1625
2018-02-02T21:44:18.401Z,988.1814
2018-02-02T21:45:18.427Z,988.241
2018-02-02T21:46:18.572Z,988.1678
2018-02-02T21:47:18.393Z,988.149
2018-02-02T21:48:18.401Z,988.1761
2018-02-02T21:49:18.678Z,988.1814
2018-02-02T21:50:18.435Z,988.1513
2018-02-02T21:51:18.396Z,988.1625
2018-02-02T21:52:18.408Z,988.1732
2018-02-02T21:53:18.406Z,988.1814
2018-02-02T21:54:18.404Z,988.1896
2018-02-02T21:55:18.780Z,988.2438
2018-02-02T21:57:25.187Z,988.2032
2018-02-02T21:58:24.593Z,988.2167
2018-02-02T21:59:24.592Z,988.2085
2018-02-02T22:00:25.018Z,988.2657
2018-02-02T22:01:24.597Z,988.2574
2018-02-02T22:02:24.587Z,988.2574
2018-02-02T22:03:24.591Z,988.2521
2018-02-02T22:04:24.588Z,988.2221
2018-02-02T22:05:24.591Z,988.2138
2018-02-02T22:06:24.619Z,988.2167
2018-02-02T22:07:24.598Z,988.271
2018-02-02T22:08:24.598Z,988.2274
2018-02-02T22:09:24.599Z,988.2792
2018-02-02T22:10:24.592Z,988.2438
2018-02-02T22:11:24.624Z,988.2221
2018-02-02T22:12:24.600Z,988.301
2018-02-02T22:13:24.599Z,988.3416
2018-02-02T22:14:24.605Z,988.3063
2018-02-02T22:15:24.601Z,988.4094
2018-02-02T22:16:24.597Z,988.3334
2018-02-02T22:17:24.653Z,988.3823
2018-02-02T22:18:51.137Z,988.3416
2018-02-02T22:19:51.097Z,988.4041
2018-02-02T22:20:51.085Z,988.4094
2018-02-02T22:21:51.110Z,988.4258
2018-02-02T22:22:51.540Z,988.5073
2018-02-02T22:23:51.089Z,988.4666
2018-02-02T22:24:51.086Z,988.4773
2018-02-02T22:25:51.093Z,988.4773
2018-02-02T22:26:51.096Z,988.5398
2018-02-02T22:27:51.091Z,988.5073
2018-02-02T22:28:51.129Z,988.4883
2018-02-02T22:29:51.096Z,988.4773
2018-02-02T22:30:51.106Z,988.4802
